Atlanta, Indiana
Current Conditions -  °F | °C
As of 5:15 AM on Thursday 29 Jan 2015 (Local Time) from KTYQ Reporting Station
Scattered Clouds Scattered Clouds  
Wind Chill: -2°   Ceiling: Unl
Heat Index:   Visibility: 10mi
Dew Point: -6°   Wind: 14mph
Humidity: 54%   Direction: 170°S
Pressure: 29.8"   Gusts: NA
Location:  40.22°N, 86.03°W
Report Text: KTYQ 291015Z AUTO 17012KT 10SM SCT100 SCT120 03/M05 A2980 RMK AO2 T00301055
Loading
Personal Weather Stations






























Interactive Weather Map New forecast layout! Learn more

10-Day Weather Forecast

Advertisements
Track Severe Weather on mobile